Results : AdventureTails Big Red Barn : AdventureTails Simpartica BarnWalk & Run on Saturday @ 07:00, 25th January 2020

Search Download Share to Facebook
G Gender Position O Overall Position C Category Position Dog Run
21km Walk/Run:Male [10]
G O C Number Name Activity Gender Age Category Duration
1 1 1 TA3096 Bradley Kiggan 21km Walk/Run Male 35 Sub-Veteran (30-39) 01:50:57
2 2 1 TA2465 Johan Ferreira 21km Walk/Run Male 26 Senior (19-29) 01:56:14
3 3 2 TA2871 Gerhard Jason Odendaal 21km Walk/Run Male 25 Senior (19-29) 01:56:16
4 4 1 TRAIL20190 Abraham Motana 21km Walk/Run Male 41 Veteran (40-49) 02:05:35
5 5 2 TA2707 Francois Smit 21km Walk/Run Male 44 Veteran (40-49) 02:09:15
6 7 2 TA2774 Martin Botha 21km Walk/Run Male 34 Sub-Veteran (30-39) 02:09:55
7 8 3 TA2539 Terence Madonsela 21km Walk/Run Male 42 Veteran (40-49) 02:12:44
8 10 3 TA2496 Willem Hendrik Boshoff 21km Walk/Run Male 30 Sub-Veteran (30-39) 02:16:28
9 11 4 TA2841 Dale Towert 21km Walk/Run Male 48 Veteran (40-49) 02:22:38
10 13 5 TA2600 Mandle Ngubenu 21km Walk/Run Male 41 Veteran (40-49) 02:24:45
21km Walk/Run:Female [5]
G O C Number Name Activity Gender Age Category Duration
1 6 1 TA2857 Lucy Theron 21km Walk/Run Female 43 Veteran (40-49) 02:09:21
2 9 2 TA2856 Theonita De Villiers 21km Walk/Run Female 45 Veteran (40-49) 02:13:58
3 12 3 TA2705 Robyn Bester 21km Walk/Run Female 43 Veteran (40-49) 02:22:40
4 14 1 TA2851 Bussi Mlovu 21km Walk/Run Female 34 Sub-Veteran (30-39) 02:53:40
5 15 4 TRAIL10053 Adele Sutherland 21km Walk/Run Female 41 Veteran (40-49) 03:30:02
15km Walk/Run:Male [7]
G O C Number Name Activity Gender Age Category Duration
1 1 1 TA2415 Peter Brown 15km Walk/Run Male 31 Sub-Veteran (30-39) 01:08:08
2 4 1 TA3073 Christo Nel 15km Walk/Run Male 40 Veteran (40-49) 01:20:34
3 5 1 TA3507 Ivan Gibbons 15km Walk/Run Male 59 Master (50-59) 01:28:22
4 6 2 TA2413 Ignatius Rautenbach 15km Walk/Run Male 44 Veteran (40-49) 01:33:24
5 7 2 TA3112 Jarryd Lobley 15km Walk/Run Male 34 Sub-Veteran (30-39) 01:38:08
6 9 1 TA2732 Dave Houghton 15km Walk/Run Male 82 Grand-Master (60+) 01:38:55
7 10 3 TA3079 Andre Dippenaar 15km Walk/Run Male 41 Veteran (40-49) 01:41:20
15km Walk/Run:Female [10]
G O C Number Name Activity Gender Age Category Duration
1 2 1 TA3119 Marinda Dippenaar 15km Walk/Run Female 38 Sub-Veteran (30-39) 01:14:08
2 3 1 TA3072 Tegan Mill 15km Walk/Run Female 28 Senior (19-29) 01:14:17
3 8 1 TA2671 Carla Houghton 15km Walk/Run Female 52 Master (50-59) 01:38:42
4 11 2 TA2738 Bongiwe Ngcobo 15km Walk/Run Female 37 Sub-Veteran (30-39) 01:47:06
5 12 1 TA2731 Doris Galvez 15km Walk/Run Female 74 Grand-Master (60+) 01:55:20
6 13 2 TA2806 Monet Van Eden 15km Walk/Run Female 23 Senior (19-29) 02:04:55
7 14 3 TA2740 Marlize Kaufman 15km Walk/Run Female 39 Sub-Veteran (30-39) 02:07:35
8 15 4 TA2788 Chalize Engelbrecht 15km Walk/Run Female 33 Sub-Veteran (30-39) 02:07:39
9 16 2 TA2534 Lorna Gibbons 15km Walk/Run Female 60 Grand-Master (60+) 02:08:46
10 17 3 TRAIL20732 Gerna Horak 15km Walk/Run Female 61 Grand-Master (60+) 02:40:12
10km Walk/Run:Male [30]
G O C Number Name Activity Gender Age Category Duration
1 1 1 TRAIL12428 Geldenhuys Combrinck 10km Walk/Run Male 46 Veteran (40-49) 00:47:12
2 2 1 TA2049 Kagiso Mosenki 10km Walk/Run Male 25 Senior (19-29) 00:54:42
3 3 1 TA2029 Xolani Kubheka 10km Walk/Run Male 33 Sub-Veteran (30-39) 00:54:45
4 4 2 TA1929 Nick Latta 10km Walk/Run Male 48 Veteran (40-49) 00:55:26
5 5 2 TA2077 Japie Van Der Westhuizen 10km Walk/Run Male 32 Sub-Veteran (30-39) 00:57:42
6 7 3 TA2355 Isaac Masuku 10km Walk/Run Male 44 Veteran (40-49) 00:58:31
7 8 3 TA1905 Lee Mitchell 10km Walk/Run Male 38 Sub-Veteran (30-39) 00:59:19
8 9 4 TA2284 Marco Freitas 10km Walk/Run Male 41 Veteran (40-49) 01:00:28
9 10 5 TA2196 Johan De Jager 10km Walk/Run Male 47 Veteran (40-49) 01:00:31
10 11 4 TA2228 Jacobus Pieterse 10km Walk/Run Male 33 Sub-Veteran (30-39) 01:01:27
11 13 5 TA1915 Johann Booysen 10km Walk/Run Male 36 Sub-Veteran (30-39) 01:04:18
12 14 1 TRAIL20725 Gerald Steyn 10km Walk/Run Male 68 Grand-Master (60+) 01:04:19
13 16 2 TRAIL20628 Geoff Lupton-smith 10km Walk/Run Male 62 Grand-Master (60+) 01:04:52
14 17 6 TA1932 Patrick Madiba 10km Walk/Run Male 34 Sub-Veteran (30-39) 01:05:27
15 18 2 TA1961 Xolani Bebeza 10km Walk/Run Male 29 Senior (19-29) 01:05:30
16 19 6 TA2258 Edward Murray 10km Walk/Run Male 44 Veteran (40-49) 01:07:23
17 21 3 TA1968 Hannes Smuts 10km Walk/Run Male 29 Senior (19-29) 01:07:36
18 22 7 TA2368 Aldyn Alec Debbo 10km Walk/Run Male 38 Sub-Veteran (30-39) 01:09:56
19 23 8 TA1926 Anton Otto 10km Walk/Run Male 38 Sub-Veteran (30-39) 01:09:59
20 24 9 TA2088 Werner Otto 10km Walk/Run Male 34 Sub-Veteran (30-39) 01:10:01
21 25 1 TA1954 Clint Holing 10km Walk/Run Male 55 Master (50-59) 01:10:13
22 27 7 TA2375 Russell Warne 10km Walk/Run Male 48 Veteran (40-49) 01:12:37
23 28 2 TA2018 Kevin Derman 10km Walk/Run Male 51 Master (50-59) 01:12:39
24 31 4 TA2199 Janlouis Jobert 10km Walk/Run Male 22 Senior (19-29) 01:15:08
25 32 10 TA2262 Regardt Van Vuuren 10km Walk/Run Male 31 Sub-Veteran (30-39) 01:15:27
26 33 8 TA2275 Eugene Mattheus 10km Walk/Run Male 45 Veteran (40-49) 01:15:38
27 36 3 TA2082 Dewald Van Biljon 10km Walk/Run Male 60 Grand-Master (60+) 01:19:29
28 38 9 TA2242 Lunga Ngqengelele 10km Walk/Run Male 44 Veteran (40-49) 01:24:54
29 50 3 TRAIL20179 William Templeton 10km Walk/Run Male 56 Master (50-59) 01:57:12
30 51 5 TA2182 Liam Templeton 10km Walk/Run Male 22 Senior (19-29) 01:57:15
10km Walk/Run:Female [21]
G O C Number Name Activity Gender Age Category Duration
1 6 1 TA2064 Este Trytsman 10km Walk/Run Female 38 Sub-Veteran (30-39) 00:58:21
2 12 2 TA1969 Monica Booysen 10km Walk/Run Female 33 Sub-Veteran (30-39) 01:04:16
3 15 1 TA1974 Nicol Pirija 10km Walk/Run Female 43 Veteran (40-49) 01:04:22
4 20 1 TA2072 Marna Smuts 10km Walk/Run Female 29 Senior (19-29) 01:07:31
5 26 1 TA2295 Johannes Mokobodi 10km Walk/Run Female 58 Master (50-59) 01:11:08
6 29 3 TA2059 Denise Nelson 10km Walk/Run Female 30 Sub-Veteran (30-39) 01:14:47
7 30 2 TA2370 Suzanne Sauerman 10km Walk/Run Female 22 Senior (19-29) 01:15:05
8 34 4 TA2225 Bertha Billings 10km Walk/Run Female 37 Sub-Veteran (30-39) 01:16:26
9 35 2 TA2038 Jo�ndie Nieuwoudt 10km Walk/Run Female 41 Veteran (40-49) 01:18:36
10 37 5 TA1978 Aretha Strydom 10km Walk/Run Female 34 Sub-Veteran (30-39) 01:20:17
11 39 3 TA2152 Susie Latta 10km Walk/Run Female 48 Veteran (40-49) 01:25:02
12 40 6 TRAIL11018 Carla Van Coller 10km Walk/Run Female 30 Sub-Veteran (30-39) 01:25:51
13 41 7 TRAIL12876 Antje Bruchner 10km Walk/Run Female 39 Sub-Veteran (30-39) 01:26:59
14 42 4 TA2353 Chantel Booysen 10km Walk/Run Female 41 Veteran (40-49) 01:28:30
15 43 5 TA2095 Amanda Fairley 10km Walk/Run Female 44 Veteran (40-49) 01:31:23
16 44 6 TRAIL20144 Shauna Costley 10km Walk/Run Female 47 Veteran (40-49) 01:32:00
17 45 8 TA2369 Portia Mnqana 10km Walk/Run Female 36 Sub-Veteran (30-39) 01:32:08
18 46 1 TA2237 Catherina Elizabeth Schreuder 10km Walk/Run Female 65 Grand-Master (60+) 01:39:52
19 47 9 TA2281 Phumla Majola 10km Walk/Run Female 37 Sub-Veteran (30-39) 01:41:31
20 48 2 TA1992 Jenny Bester 10km Walk/Run Female 75 Grand-Master (60+) 01:48:18
21 49 7 TA2383 Amanda Bester 10km Walk/Run Female 45 Veteran (40-49) 01:48:26
5km Walk/Run:Male [40]
G O C Number Name Activity Gender Age Category Duration
1 1 1 TA0575 Ruben Trytsman 5km Walk/Run Male 8 Under 11 00:33:22
2 2 1 TA0010 Carlos Sanches 5km Walk/Run Male 40 Veteran (40-49) 00:33:36
3 4 2 TA0282 Anthony Cousins 5km Walk/Run Male 41 Veteran (40-49) 00:36:47
4 7 1 TA0233 Dean Goosen 5km Walk/Run Male 32 Sub-Veteran (30-39) 00:37:59
5 9 2 TA1573 Guy Steenkamp 5km Walk/Run Male 30 Sub-Veteran (30-39) 00:38:17
6 15 1 TA1497 Walter Gilfillan 5km Walk/Run Male 63 Grand-Master (60+) 00:45:44
7 18 1 TRAIL20525 Jacques Vally 5km Walk/Run Male 50 Master (50-59) 00:46:19
8 20 2 TA1521 Cameron Gough 5km Walk/Run Male 10 Under 11 00:47:05
9 21 3 TA1583 Matthew Gough 5km Walk/Run Male 10 Under 11 00:47:07
10 22 3 TA1473 Clinton Gough 5km Walk/Run Male 45 Veteran (40-49) 00:47:08
11 23 1 TA2186 Lebogang Mosenki 5km Walk/Run Male 29 Senior (19-29) 00:47:53
12 24 3 TA2014 Mlungisi Bana 5km Walk/Run Male 34 Sub-Veteran (30-39) 00:47:55
13 25 4 TRAIL20354 Gerhard Van Huyssteen 5km Walk/Run Male 49 Veteran (40-49) 00:47:57
14 26 4 TRAIL20486 Bastiaan Van Der Heever 5km Walk/Run Male 39 Sub-Veteran (30-39) 00:48:52
15 27 5 TA1315 Peter Jay 5km Walk/Run Male 45 Veteran (40-49) 00:48:54
16 29 2 TA1653 Alex Wrbka 5km Walk/Run Male 24 Senior (19-29) 00:50:02
17 32 4 TA0487 Luan Smit 5km Walk/Run Male 7 Under 11 00:50:45
18 34 6 TA1266 Riaan Swart 5km Walk/Run Male 43 Veteran (40-49) 00:51:33
19 37 2 TRAIL20083 Ben Pieterse 5km Walk/Run Male 63 Grand-Master (60+) 00:52:25
20 38 2 TA1415 Mike Doman 5km Walk/Run Male 59 Master (50-59) 00:52:48
21 39 3 TA1523 Franco Wallis 5km Walk/Run Male 21 Senior (19-29) 00:53:11
22 41 3 TA1451 Terry Harris 5km Walk/Run Male 61 Grand-Master (60+) 00:53:17
23 44 4 TA0001 Brenden Visser 5km Walk/Run Male 25 Senior (19-29) 00:58:37
24 45 7 TA0370 Conrad Booysen 5km Walk/Run Male 41 Veteran (40-49) 00:59:00
25 49 5 TA0567 Michael Brown 5km Walk/Run Male 36 Sub-Veteran (30-39) 00:59:54
26 53 8 TA1468 Willie Pavier 5km Walk/Run Male 49 Veteran (40-49) 01:00:18
27 56 1 TA1447 Travis Brown 5km Walk/Run Male 17 16 to 18 01:00:28
28 63 5 TA0285 Heinrich Maritz 5km Walk/Run Male 8 Under 11 01:03:03
29 64 5 TA0210 Wynand Nieuwenhuizen 5km Walk/Run Male 24 Senior (19-29) 01:03:06
30 67 6 TA1211 Willie Potgieter 5km Walk/Run Male 24 Senior (19-29) 01:03:16
31 68 6 TA0023 Regart Swanepoel 5km Walk/Run Male 34 Sub-Veteran (30-39) 01:03:23
32 70 3 TA0345 Joe Poipao 5km Walk/Run Male 56 Master (50-59) 01:05:15
33 71 7 TA1470 Ryan Mackenzie 5km Walk/Run Male 24 Senior (19-29) 01:07:02
34 72 7 TA1735 David Holliday 5km Walk/Run Male 31 Sub-Veteran (30-39) 01:07:07
35 75 8 TA1725 Tylon Van Veenhuyzen 5km Walk/Run Male 33 Sub-Veteran (30-39) 01:07:45
36 77 4 TA1547 Fred Poggenpoel 5km Walk/Run Male 74 Grand-Master (60+) 01:14:21
37 80 6 TA0126 Jandre De Jager 5km Walk/Run Male 10 Under 11 01:15:25
38 81 9 TA2349 Letlhogonolo Diale 5km Walk/Run Male 38 Sub-Veteran (30-39) 01:16:37
39 83 8 TA0472 Tiaan Delport 5km Walk/Run Male 20 Senior (19-29) 01:26:51
40 84 9 TA0559 Danie Delport 5km Walk/Run Male 49 Veteran (40-49) 01:41:18
5km Walk/Run:Female [45]
G O C Number Name Activity Gender Age Category Duration
1 3 1 TA1286 Colette Ferreira 5km Walk/Run Female 30 Sub-Veteran (30-39) 00:35:15
2 5 2 TA0290 Inge Cousins 5km Walk/Run Female 38 Sub-Veteran (30-39) 00:37:36
3 6 3 TA0380 Leighton Goosen 5km Walk/Run Female 31 Sub-Veteran (30-39) 00:37:56
4 8 1 TA1558 Kaylee Zeederberg 5km Walk/Run Female 23 Senior (19-29) 00:38:13
5 10 1 TA1501 Anika De Jager 5km Walk/Run Female 43 Veteran (40-49) 00:39:26
6 11 1 TA1673 Mandy Jay 5km Walk/Run Female 50 Master (50-59) 00:39:56
7 12 2 TA0341 Jaen-mari Smit 5km Walk/Run Female 29 Senior (19-29) 00:41:55
8 13 1 TRAIL20777 Janine Rust 5km Walk/Run Female 61 Grand-Master (60+) 00:42:10
9 14 3 TA0471 Courtney Goosen 5km Walk/Run Female 28 Senior (19-29) 00:42:24
10 16 2 TA0368 Nicolette Gilfillan 5km Walk/Run Female 49 Veteran (40-49) 00:45:45
11 17 4 TA1228 Tamrin Holliday 5km Walk/Run Female 28 Senior (19-29) 00:45:49
12 19 3 TA1269 Terri Leigh Gough 5km Walk/Run Female 40 Veteran (40-49) 00:47:03
13 28 5 TA0188 Stephanie Anderson 5km Walk/Run Female 24 Senior (19-29) 00:48:56
14 30 6 TA1931 Holly Latta 5km Walk/Run Female 20 Senior (19-29) 00:50:10
15 31 4 TA1543 Michelle Pavier 5km Walk/Run Female 42 Veteran (40-49) 00:50:33
16 33 5 TA1279 Colette Swart 5km Walk/Run Female 41 Veteran (40-49) 00:51:31
17 35 2 TA0416 Sue Usher 5km Walk/Run Female 58 Master (50-59) 00:52:02
18 36 1 TA1328 Kayla Birnk 5km Walk/Run Female 13 12 to 15 00:52:05
19 40 7 TA1252 Lisa Jarvis 5km Walk/Run Female 19 Senior (19-29) 00:53:15
20 42 3 TRAIL20101 Liesel Neubrech 5km Walk/Run Female 50 Master (50-59) 00:55:49
21 43 4 TA1362 Gene� Raith-riches 5km Walk/Run Female 34 Sub-Veteran (30-39) 00:56:08
22 46 5 TA0317 Riana Brown 5km Walk/Run Female 35 Sub-Veteran (30-39) 00:59:14
23 47 2 TA0388 Jane Steyn 5km Walk/Run Female 66 Grand-Master (60+) 00:59:33
24 48 6 TRAIL20147 Helia Vorster 5km Walk/Run Female 33 Sub-Veteran (30-39) 00:59:40
25 50 7 TA1391 Kerisa Soobramoney 5km Walk/Run Female 30 Sub-Veteran (30-39) 01:00:09
26 51 8 TA0362 Orika Orrie 5km Walk/Run Female 29 Senior (19-29) 01:00:13
27 52 9 TA0195 Thanusha Govender 5km Walk/Run Female 28 Senior (19-29) 01:00:15
28 54 4 TA1417 Helmien Van Biljon 5km Walk/Run Female 58 Master (50-59) 01:00:21
29 55 1 TA1418 Zan� Smit 5km Walk/Run Female 10 Under 11 01:00:26
30 57 8 TA1341 Sandisa Maqubela 5km Walk/Run Female 37 Sub-Veteran (30-39) 01:00:35
31 58 5 TA1325 Tina Campbell 5km Walk/Run Female 55 Master (50-59) 01:00:58
32 59 6 TA1350 Bridget Hill 5km Walk/Run Female 54 Master (50-59) 01:01:01
33 60 7 TA1216 Tina De Nobrega 5km Walk/Run Female 50 Master (50-59) 01:01:03
34 61 6 TA0231 Susan Maritz 5km Walk/Run Female 44 Veteran (40-49) 01:02:54
35 62 8 TA0424 Annemarie Nieuwenhuizen 5km Walk/Run Female 58 Master (50-59) 01:02:58
36 65 9 TA1215 Kate Gindra 5km Walk/Run Female 33 Sub-Veteran (30-39) 01:03:11
37 66 10 TA1479 Rene Joubert 5km Walk/Run Female 21 Senior (19-29) 01:03:14
38 69 10 TA0192 Lerato Phaka 5km Walk/Run Female 37 Sub-Veteran (30-39) 01:03:26
39 73 3 TA1257 Vivienne Raith-riches 5km Walk/Run Female 62 Grand-Master (60+) 01:07:18
40 74 9 TA1368 Rosemary Poipao 5km Walk/Run Female 52 Master (50-59) 01:07:39
41 76 11 TA1487 Sephra Duncan 5km Walk/Run Female 33 Sub-Veteran (30-39) 01:07:47
42 78 2 TA0486 Jana De Jager 5km Walk/Run Female 8 Under 11 01:15:21
43 79 2 TA0051 Lize De Jager 5km Walk/Run Female 12 12 to 15 01:15:23
44 82 7 TA1542 Andrea Delport 5km Walk/Run Female 47 Veteran (40-49) 01:26:49
45 85 8 TRAIL20000 Glizelle Langerman 5km Walk/Run Female 43 Veteran (40-49) 02:36:31
2km Run/Walk:Male [6]
G O C Number Name Activity Gender Age Category Duration
1 1 1 TA0993 Wessel Vermeulen 2km Run/Walk Male 10 Under 11 00:13:04
2 2 2 TA1110 Jean-pierre Vermeulen 2km Run/Walk Male 6 Under 11 00:13:10
3 4 3 TA0785 Jean Pierre Vermeulen 2km Run/Walk Male 6 Under 11 00:15:07
4 9 1 TA1728 Quintin Franks 2km Run/Walk Male 37 Sub-Veteran (30-39) 00:29:15
5 11 1 TA1027 Andre Geldenhuys 2km Run/Walk Male 45 Veteran (40-49) 00:58:51
6 12 4 TA1016 Chesley Geldenhuys 2km Run/Walk Male 7 Under 11 00:58:56
2km Run/Walk:Female [9]
G O C Number Name Activity Gender Age Category Duration
1 3 1 TA0778 Chantelle Vermeulen 2km Run/Walk Female 42 Veteran (40-49) 00:13:52
2 5 1 TA1112 Stella Pieterse 2km Run/Walk Female 8 Under 11 00:17:28
3 6 1 TA0767 Shantelle Pieterse 2km Run/Walk Female 36 Sub-Veteran (30-39) 00:17:33
4 7 2 TRAIL20487 Charline Jay 2km Run/Walk Female 35 Sub-Veteran (30-39) 00:25:21
5 8 1 TA1307 Amanda Harris 2km Run/Walk Female 57 Master (50-59) 00:29:02
6 10 3 TA0554 Eurica Franks 2km Run/Walk Female 30 Sub-Veteran (30-39) 00:29:17
7 13 1 TA0645 Shannon Westphal 2km Run/Walk Female 24 Senior (19-29) 01:10:32
8 14 2 TA0753 Lucy Westphal 2km Run/Walk Female 50 Master (50-59) 01:10:36
9 15 2 TA0639 Roxanne Westphal 2km Run/Walk Female 22 Senior (19-29) 01:13:45